Time;durP1;ratioP1;P1;durP2;ratioP2;P2;SDS_P1;SDS_P2;PMS_P1;PMS_P2;Temp;Humidity;BMP_temperature;BMP_pressure;BME280_temperature;BME280_humidity;BME280_pressure;Samples;Min_cycle;Max_cycle;Signal;HPM_P1;HPM_P2
2022/04/16 00:00:33;;;;;;;5.27;4.10;;;7.10;99.90;;;;;;5079801;28;20240;-62
2022/04/16 00:03:22;;;;;;;6.07;4.50;;;7.00;99.90;;;;;;5077713;28;20223;-63
2022/04/16 00:06:13;;;;;;;4.70;4.00;;;6.90;99.90;;;;;;5076388;28;20223;-62
2022/04/16 00:09:01;;;;;;;5.77;4.43;;;6.90;99.90;;;;;;5075949;28;20239;-61
2022/04/16 00:11:50;;;;;;;3.97;3.57;;;6.90;99.90;;;;;;5058131;28;20232;-63
2022/04/16 00:14:39;;;;;;;4.40;4.00;;;7.00;99.90;;;;;;5076819;28;20215;-64
2022/04/16 00:17:27;;;;;;;5.40;3.70;;;7.00;99.90;;;;;;5076436;28;20208;-64
2022/04/16 00:20:16;;;;;;;3.90;3.50;;;7.00;99.90;;;;;;5078470;28;20220;-63
2022/04/16 00:23:06;;;;;;;4.07;3.47;;;7.00;99.90;;;;;;5074969;28;20231;-64
2022/04/16 00:25:56;;;;;;;3.73;2.90;;;7.00;99.90;;;;;;5061362;28;20681;-64
2022/04/16 00:28:48;;;;;;;3.97;3.13;;;7.00;99.90;;;;;;5071925;28;20287;-63
2022/04/16 00:31:38;;;;;;;3.40;3.10;;;7.10;99.90;;;;;;5062064;28;20219;-64
2022/04/16 00:34:27;;;;;;;3.83;3.20;;;7.10;99.90;;;;;;5081398;28;20621;-60
2022/04/16 00:37:16;;;;;;;3.20;2.90;;;7.20;99.90;;;;;;5071102;28;20224;-63
2022/04/16 00:40:08;;;;;;;3.47;3.17;;;7.10;99.90;;;;;;5075800;28;20235;-63
2022/04/16 00:42:57;;;;;;;4.17;3.10;;;7.00;99.90;;;;;;5061409;28;21387;-62
2022/04/16 00:45:47;;;;;;;3.30;3.00;;;6.90;99.90;;;;;;5074680;28;20228;-62
2022/04/16 00:48:36;;;;;;;4.10;2.57;;;7.00;99.90;;;;;;5073860;28;20219;-63
2022/04/16 00:51:25;;;;;;;5.00;3.53;;;6.80;99.90;;;;;;5061537;28;20239;-61
2022/04/16 00:54:18;;;;;;;5.30;3.37;;;6.90;99.90;;;;;;5075864;28;20219;-61
2022/04/16 00:57:08;;;;;;;4.30;3.60;;;6.90;99.90;;;;;;5048290;28;21004;-61
2022/04/16 00:59:57;;;;;;;4.70;3.27;;;6.90;99.90;;;;;;5060614;28;20693;-61
2022/04/16 01:02:49;;;;;;;5.67;3.43;;;7.00;99.90;;;;;;5060655;28;20227;-61
2022/04/16 01:05:38;;;;;;;5.13;3.90;;;6.90;99.90;;;;;;5066297;28;20207;-63
2022/04/16 01:08:27;;;;;;;4.23;3.43;;;6.80;99.90;;;;;;5078543;28;20224;-62
2022/04/16 01:11:16;;;;;;;6.63;4.30;;;6.90;99.90;;;;;;5071804;28;20725;-61
2022/04/16 01:14:06;;;;;;;5.57;3.87;;;6.80;99.90;;;;;;5059845;28;20250;-62
2022/04/16 01:16:56;;;;;;;6.83;4.20;;;6.70;99.90;;;;;;5073966;28;20223;-63
2022/04/16 01:19:45;;;;;;;6.23;4.37;;;6.80;99.90;;;;;;5062716;28;20224;-62
2022/04/16 01:22:35;;;;;;;6.17;4.70;;;6.70;99.90;;;;;;5063794;28;20785;-63
2022/04/16 01:25:26;;;;;;;6.00;4.73;;;6.90;99.90;;;;;;5060678;28;20223;-62
2022/04/16 01:28:15;;;;;;;5.90;4.80;;;6.70;99.90;;;;;;5050284;28;20314;-62
2022/04/16 01:31:04;;;;;;;6.50;5.13;;;6.80;99.90;;;;;;5069882;28;20224;-62
2022/04/16 01:33:52;;;;;;;6.53;4.93;;;6.70;99.90;;;;;;5073871;28;20303;-63
2022/04/16 01:36:41;;;;;;;7.20;5.03;;;6.80;99.90;;;;;;5074726;28;20957;-64
2022/04/16 01:39:38;;;;;;;8.00;4.87;;;6.70;99.90;;;;;;5071175;28;20226;-63
2022/04/16 01:42:29;;;;;;;7.10;4.70;;;6.60;99.90;;;;;;5072549;28;20226;-63
2022/04/16 01:45:21;;;;;;;7.03;5.07;;;6.60;99.90;;;;;;5071454;28;20242;-63
2022/04/16 01:48:13;;;;;;;6.73;5.37;;;6.60;99.90;;;;;;5076930;28;20243;-63
2022/04/16 01:51:02;;;;;;;6.47;5.07;;;6.50;99.90;;;;;;5057071;28;20332;-63
2022/04/16 01:53:50;;;;;;;8.47;5.40;;;6.50;99.90;;;;;;5073563;28;20235;-63
2022/04/16 01:56:40;;;;;;;7.97;5.30;;;6.60;99.90;;;;;;5072992;28;20234;-64
2022/04/16 01:59:29;;;;;;;7.70;5.40;;;6.50;99.90;;;;;;5075604;28;20216;-63
2022/04/16 02:02:19;;;;;;;8.07;5.23;;;6.40;99.90;;;;;;5071403;28;20219;-63
2022/04/16 02:05:09;;;;;;;6.97;5.33;;;6.30;99.90;;;;;;5075158;28;21944;-63
2022/04/16 02:07:58;;;;;;;11.30;5.90;;;6.30;99.90;;;;;;5070036;28;20219;-63
2022/04/16 02:10:46;;;;;;;7.03;5.60;;;6.40;99.90;;;;;;5066202;28;20284;-63
2022/04/16 02:13:40;;;;;;;8.83;5.47;;;6.50;99.90;;;;;;5072191;28;20795;-65
2022/04/16 02:16:29;;;;;;;7.43;4.90;;;6.40;99.90;;;;;;5070699;28;20810;-64
2022/04/16 02:19:17;;;;;;;9.73;5.20;;;6.30;99.90;;;;;;5055716;28;20227;-63
2022/04/16 02:22:06;;;;;;;8.03;5.70;;;6.40;99.90;;;;;;5066361;28;20333;-62
2022/04/16 02:24:55;;;;;;;7.73;5.57;;;6.50;99.90;;;;;;5072653;28;20237;-62
2022/04/16 02:27:43;;;;;;;6.53;5.00;;;6.40;99.90;;;;;;5071457;28;20226;-64
2022/04/16 02:30:33;;;;;;;7.40;5.07;;;6.40;99.90;;;;;;5074979;28;20315;-64
2022/04/16 02:33:26;;;;;;;6.40;4.60;;;6.40;99.90;;;;;;5075631;28;20226;-63
2022/04/16 02:36:14;;;;;;;8.03;5.40;;;6.40;99.90;;;;;;5060984;28;20835;-62
2022/04/16 02:39:04;;;;;;;7.70;4.77;;;6.40;99.90;;;;;;5055809;28;20235;-62
2022/04/16 02:41:56;;;;;;;6.27;5.00;;;6.40;99.90;;;;;;5062551;28;20270;-62
2022/04/16 02:48:07;;;;;;;6.70;4.73;;;6.30;99.90;;;;;;4992284;28;20222;-62
2022/04/16 02:50:55;;;;;;;6.87;4.40;;;6.40;99.90;;;;;;5004735;28;20233;-63
2022/04/16 02:53:44;;;;;;;4.70;4.00;;;6.40;99.90;;;;;;5039328;28;20224;-64
2022/04/16 02:56:36;;;;;;;9.40;4.53;;;6.30;99.90;;;;;;5063260;28;20589;-63
2022/04/16 02:59:25;;;;;;;5.73;3.87;;;6.40;99.90;;;;;;5072734;28;20223;-64
2022/04/16 03:02:14;;;;;;;5.53;3.97;;;6.30;99.90;;;;;;5056526;28;20854;-63
2022/04/16 03:05:06;;;;;;;8.10;4.43;;;6.30;99.90;;;;;;5075844;28;20393;-63
2022/04/16 03:07:55;;;;;;;4.50;3.20;;;6.30;99.90;;;;;;5067223;28;21053;-64
2022/04/16 03:10:44;;;;;;;4.20;3.80;;;6.30;99.90;;;;;;5064325;28;20224;-64
2022/04/16 03:13:34;;;;;;;6.03;3.87;;;6.40;99.90;;;;;;5075009;28;20311;-63
2022/04/16 03:19:29;;;;;;;5.60;3.60;;;6.40;99.90;;;;;;5070589;28;20292;-63
2022/04/16 03:22:19;;;;;;;4.53;3.80;;;6.40;99.90;;;;;;5057895;28;20220;-64
2022/04/16 03:25:08;;;;;;;5.30;4.00;;;6.30;99.90;;;;;;5061098;28;20211;-63
2022/04/16 03:27:57;;;;;;;5.27;3.70;;;6.20;99.90;;;;;;5073780;28;20220;-63
2022/04/16 03:30:47;;;;;;;5.07;3.70;;;6.10;99.90;;;;;;5073241;28;20230;-62
2022/04/16 03:33:36;;;;;;;4.73;3.67;;;6.20;99.90;;;;;;5064169;28;20247;-64
2022/04/16 03:36:28;;;;;;;4.60;3.43;;;6.00;99.90;;;;;;5077837;28;20380;-61
2022/04/16 03:39:20;;;;;;;4.70;3.60;;;6.10;99.90;;;;;;5057849;28;20216;-62
2022/04/16 03:42:09;;;;;;;6.53;3.80;;;6.20;99.90;;;;;;5069300;28;20216;-62
2022/04/16 03:44:58;;;;;;;5.67;3.37;;;6.20;99.90;;;;;;5059728;28;20345;-62
2022/04/16 03:47:50;;;;;;;4.47;2.90;;;6.00;99.90;;;;;;5061732;28;20225;-62
2022/04/16 03:50:40;;;;;;;3.83;3.17;;;5.90;99.90;;;;;;5077872;28;20227;-63
2022/04/16 03:53:29;;;;;;;6.50;3.37;;;5.90;99.90;;;;;;5072651;28;20219;-62
2022/04/16 04:02:36;;;;;;;3.97;3.20;;;5.80;99.90;;;;;;5070483;28;20211;-61
2022/04/16 04:05:25;;;;;;;3.53;2.90;;;5.80;99.90;;;;;;5076885;28;20238;-62
2022/04/16 04:08:14;;;;;;;4.87;3.60;;;5.80;99.90;;;;;;5066307;28;20223;-61
2022/04/16 04:11:03;;;;;;;4.57;3.40;;;5.80;99.90;;;;;;5078199;28;20645;-61
2022/04/16 04:13:53;;;;;;;4.87;2.60;;;5.70;99.90;;;;;;5078650;28;20718;-63
2022/04/16 04:16:42;;;;;;;3.90;3.03;;;5.70;99.90;;;;;;5078641;28;20399;-63
2022/04/16 04:19:30;;;;;;;4.63;2.97;;;5.70;99.90;;;;;;5069863;28;20215;-62
2022/04/16 04:22:19;;;;;;;3.50;2.80;;;5.60;99.90;;;;;;5080834;28;20219;-61
2022/04/16 04:25:08;;;;;;;3.73;2.73;;;5.60;99.90;;;;;;5064669;28;20232;-62
2022/04/16 04:27:57;;;;;;;3.20;2.03;;;5.50;99.90;;;;;;5056339;28;20234;-60
2022/04/16 04:30:47;;;;;;;2.80;2.23;;;5.30;99.90;;;;;;5073734;28;20227;-62
2022/04/16 04:33:35;;;;;;;2.63;2.40;;;5.20;99.90;;;;;;5076118;28;20231;-65
2022/04/16 04:36:26;;;;;;;2.90;2.37;;;5.30;99.90;;;;;;5078947;28;20226;-63
2022/04/16 04:39:14;;;;;;;2.37;1.90;;;5.30;99.90;;;;;;5064843;28;20241;-64
2022/04/16 04:42:03;;;;;;;3.30;2.03;;;5.10;99.90;;;;;;5073925;28;20235;-65
2022/04/16 04:44:51;;;;;;;3.13;2.20;;;5.00;99.90;;;;;;5077170;28;20222;-63
2022/04/16 04:47:41;;;;;;;2.60;2.30;;;5.10;99.90;;;;;;5078916;28;20226;-64
2022/04/16 04:50:30;;;;;;;2.83;2.20;;;5.30;99.90;;;;;;5073841;28;20234;-62
2022/04/16 04:53:19;;;;;;;2.50;2.07;;;5.20;99.90;;;;;;5067818;28;20229;-63
2022/04/16 04:56:07;;;;;;;2.90;2.17;;;5.30;99.90;;;;;;5078136;28;20226;-62
2022/04/16 04:58:56;;;;;;;3.20;2.33;;;5.40;99.90;;;;;;5065853;28;20231;-63
2022/04/16 05:01:45;;;;;;;7.43;2.50;;;5.30;99.90;;;;;;5077132;28;20222;-62
2022/04/16 05:04:35;;;;;;;3.70;2.70;;;5.20;99.90;;;;;;5078905;28;20234;-63
2022/04/16 05:07:24;;;;;;;3.20;2.67;;;5.30;99.90;;;;;;5079610;28;20264;-62
2022/04/16 05:10:13;;;;;;;3.50;2.53;;;5.20;99.90;;;;;;5055575;28;20235;-63
2022/04/16 05:13:01;;;;;;;3.27;2.00;;;5.30;99.90;;;;;;5071415;28;20942;-62
2022/04/16 05:15:50;;;;;;;2.47;2.13;;;5.10;99.90;;;;;;5077304;28;20227;-62
2022/04/16 05:18:39;;;;;;;3.50;2.43;;;5.10;99.90;;;;;;5064838;28;20290;-63
2022/04/16 05:21:29;;;;;;;2.57;1.97;;;5.30;99.90;;;;;;5069710;28;20226;-61
2022/04/16 05:24:21;;;;;;;3.07;2.23;;;5.10;99.90;;;;;;5069116;28;20218;-65
2022/04/16 05:27:10;;;;;;;3.27;1.83;;;5.10;99.90;;;;;;5072602;28;20702;-63
2022/04/16 05:30:06;;;;;;;2.90;2.03;;;5.70;99.90;;;;;;5079873;28;20223;-64
2022/04/16 05:33:01;;;;;;;2.60;1.80;;;5.90;99.90;;;;;;5068565;28;21544;-64
2022/04/16 05:35:49;;;;;;;1.90;1.70;;;6.20;99.90;;;;;;5076901;28;20723;-65
2022/04/16 05:38:39;;;;;;;2.23;1.70;;;5.90;99.90;;;;;;5060717;28;20335;-67
2022/04/16 05:41:28;;;;;;;2.15;1.70;;;6.20;99.90;;;;;;5081745;28;20238;-63
2022/04/16 05:44:16;;;;;;;3.78;2.05;;;6.10;99.90;;;;;;5061597;28;20223;-63
2022/04/16 05:47:11;;;;;;;2.20;1.70;;;5.90;99.90;;;;;;5058090;28;20230;-64
2022/04/16 05:50:00;;;;;;;3.53;1.90;;;6.20;99.90;;;;;;5065351;28;20680;-63
2022/04/16 05:52:49;;;;;;;3.13;1.90;;;6.30;99.90;;;;;;5077706;28;20781;-64
2022/04/16 05:55:40;;;;;;;3.30;1.80;;;6.10;99.90;;;;;;5067180;28;20234;-63
2022/04/16 05:58:29;;;;;;;2.33;1.70;;;6.20;99.90;;;;;;5061665;28;20235;-62
2022/04/16 06:01:18;;;;;;;2.30;1.80;;;6.10;99.90;;;;;;5073092;28;20368;-64
2022/04/16 06:04:08;;;;;;;3.33;1.80;;;6.40;99.90;;;;;;5078107;28;20224;-63
2022/04/16 06:06:56;;;;;;;2.80;1.73;;;6.10;99.90;;;;;;5063657;28;20718;-65
2022/04/16 06:09:45;;;;;;;3.00;1.70;;;5.90;99.90;;;;;;5054026;28;20231;-62
2022/04/16 06:12:41;;;;;;;2.20;1.70;;;6.60;99.90;;;;;;5065095;28;20221;-63
2022/04/16 06:15:30;;;;;;;2.63;1.87;;;6.00;99.90;;;;;;5060315;28;20229;-64
2022/04/16 06:18:19;;;;;;;2.27;1.67;;;6.00;99.90;;;;;;5063366;28;20218;-61
2022/04/16 06:21:07;;;;;;;2.27;1.67;;;6.00;99.90;;;;;;5057995;28;20740;-62
2022/04/16 06:23:57;;;;;;;2.70;1.83;;;6.00;99.90;;;;;;5072376;28;20228;-64
2022/04/16 06:26:47;;;;;;;3.70;2.10;;;5.90;99.90;;;;;;5066685;28;20739;-63
2022/04/16 06:29:37;;;;;;;2.50;2.00;;;5.50;99.90;;;;;;5074650;28;20329;-64
2022/04/16 06:32:26;;;;;;;3.53;2.03;;;5.50;99.90;;;;;;5060531;28;20215;-61
2022/04/16 06:35:14;;;;;;;2.40;2.00;;;5.70;99.90;;;;;;5049178;28;20228;-62
2022/04/16 06:38:07;;;;;;;1.70;1.60;;;5.80;99.90;;;;;;5061775;28;20367;-65
2022/04/16 06:40:56;;;;;;;2.40;1.70;;;5.80;99.90;;;;;;5076914;28;20583;-63
2022/04/16 06:43:44;;;;;;;4.10;2.57;;;5.60;99.90;;;;;;5068645;28;21008;-62
2022/04/16 06:46:36;;;;;;;3.23;2.00;;;5.70;99.90;;;;;;5065671;28;20211;-63
2022/04/16 06:49:25;;;;;;;2.17;1.80;;;6.00;99.90;;;;;;5062239;28;20224;-62
2022/04/16 06:52:14;;;;;;;2.80;1.90;;;6.40;99.90;;;;;;5072351;28;20224;-62
2022/04/16 06:55:03;;;;;;;2.27;1.57;;;6.50;99.90;;;;;;5063990;28;20393;-62
2022/04/16 06:57:51;;;;;;;2.80;2.00;;;6.60;99.90;;;;;;5072000;28;20699;-63
2022/04/16 07:00:40;;;;;;;1.70;1.60;;;6.60;99.90;;;;;;5060496;28;20225;-63
2022/04/16 07:03:30;;;;;;;1.87;1.57;;;6.50;99.90;;;;;;5079505;28;20214;-63
2022/04/16 07:06:19;;;;;;;2.27;1.80;;;6.30;99.90;;;;;;5069451;28;20329;-68
2022/04/16 07:09:08;;;;;;;1.90;1.70;;;6.10;99.90;;;;;;5068077;28;20646;-65
2022/04/16 07:11:57;;;;;;;1.93;1.47;;;6.80;99.90;;;;;;5070248;28;20909;-65
2022/04/16 07:14:46;;;;;;;3.10;2.30;;;6.40;99.90;;;;;;5068482;28;20231;-63
2022/04/16 07:17:40;;;;;;;2.60;1.83;;;7.50;99.90;;;;;;5076702;28;20230;-65
2022/04/16 07:20:31;;;;;;;2.60;1.87;;;7.30;99.90;;;;;;5079075;28;20221;-65
2022/04/16 07:23:23;;;;;;;2.20;1.97;;;6.50;99.90;;;;;;5069252;28;20322;-66
2022/04/16 07:26:12;;;;;;;3.70;2.20;;;6.30;99.90;;;;;;5080728;28;20669;-64
2022/04/16 07:29:01;;;;;;;3.10;2.17;;;6.70;99.90;;;;;;5073235;28;20228;-64
2022/04/16 07:31:50;;;;;;;2.63;2.30;;;8.10;99.90;;;;;;5068863;28;20875;-65
2022/04/16 07:34:39;;;;;;;3.07;2.40;;;7.10;99.90;;;;;;5080309;28;20215;-65
2022/04/16 07:37:29;;;;;;;3.67;2.03;;;6.70;99.90;;;;;;5078656;28;20224;-64
2022/04/16 07:40:18;;;;;;;2.87;2.17;;;6.50;99.90;;;;;;5071978;28;20211;-65
2022/04/16 07:43:07;;;;;;;2.50;2.20;;;6.30;99.90;;;;;;5082678;28;20664;-64
2022/04/16 07:45:55;;;;;;;3.13;2.20;;;6.60;99.90;;;;;;5071699;28;20224;-63
2022/04/16 07:48:44;;;;;;;2.10;1.90;;;7.60;99.90;;;;;;5055541;28;20231;-64
2022/04/16 07:51:32;;;;;;;4.87;2.30;;;9.20;99.90;;;;;;5080395;28;20220;-64
2022/04/16 07:54:22;;;;;;;2.40;2.20;;;8.30;99.90;;;;;;5070588;28;20224;-64
2022/04/16 07:57:13;;;;;;;1.80;1.70;;;7.90;99.90;;;;;;5077068;28;20257;-64
2022/04/16 08:00:02;;;;;;;2.80;1.97;;;8.50;99.90;;;;;;5079180;28;20216;-64
2022/04/16 08:02:59;;;;;;;2.47;1.93;;;8.60;99.90;;;;;;5079012;28;20687;-64
2022/04/16 08:05:47;;;;;;;1.97;1.50;;;10.30;99.80;;;;;;5078428;28;20229;-65
2022/04/16 08:08:36;;;;;;;6.55;2.30;;;9.60;98.10;;;;;;5056178;28;20817;-66
2022/04/16 08:11:26;;;;;;;2.00;1.70;;;10.60;97.30;;;;;;5077581;28;20251;-63
2022/04/16 08:14:15;;;;;;;2.83;1.83;;;10.70;93.80;;;;;;5076134;28;20373;-64
2022/04/16 08:17:04;;;;;;;2.78;2.13;;;11.80;92.10;;;;;;5075481;28;20228;-65
2022/04/16 08:19:53;;;;;;;2.72;2.20;;;10.80;95.30;;;;;;5078440;28;20227;-63
2022/04/16 08:22:46;;;;;;;2.53;2.10;;;12.20;92.00;;;;;;5067253;28;20219;-64
2022/04/16 08:25:45;;;;;;;2.30;2.10;;;12.50;91.40;;;;;;5068885;28;20574;-64
2022/04/16 08:28:35;;;;;;;3.10;2.10;;;14.50;82.50;;;;;;5053425;28;20227;-65
2022/04/16 08:31:23;;;;;;;2.50;2.30;;;15.20;73.80;;;;;;5054375;28;20223;-63
2022/04/16 08:34:12;;;;;;;3.22;2.20;;;11.10;82.00;;;;;;5082583;28;20307;-62
2022/04/16 08:37:01;;;;;;;2.47;2.17;;;11.90;79.80;;;;;;5061074;28;20235;-63
2022/04/16 08:39:49;;;;;;;3.78;2.13;;;12.80;86.20;;;;;;5068138;28;20215;-64
2022/04/16 08:42:39;;;;;;;2.40;2.20;;;11.60;81.00;;;;;;5062509;28;20654;-62
2022/04/16 08:45:31;;;;;;;4.18;2.05;;;13.30;87.60;;;;;;5073480;28;20318;-64
2022/04/16 08:48:21;;;;;;;4.32;2.20;;;10.70;83.70;;;;;;5072970;28;20352;-64
2022/04/16 08:51:09;;;;;;;2.60;2.25;;;10.10;90.20;;;;;;5054656;28;20227;-62
2022/04/16 08:53:58;;;;;;;3.50;1.98;;;9.60;89.70;;;;;;5072208;28;20250;-63
2022/04/16 08:56:46;;;;;;;2.40;2.20;;;9.30;90.50;;;;;;5065476;28;20251;-65
2022/04/16 08:59:35;;;;;;;3.67;2.28;;;9.80;89.50;;;;;;5061799;28;20243;-63
2022/04/16 09:02:27;;;;;;;2.38;2.00;;;8.90;91.10;;;;;;5076386;28;20224;-64
2022/04/16 09:05:18;;;;;;;3.78;2.33;;;8.70;91.70;;;;;;5062198;28;20237;-63
2022/04/16 09:08:07;;;;;;;2.23;1.90;;;9.10;90.30;;;;;;5073119;28;20226;-62
2022/04/16 09:11:05;;;;;;;2.78;1.77;;;11.60;87.70;;;;;;5074443;28;20231;-63
2022/04/16 09:13:57;;;;;;;2.85;1.92;;;14.00;81.30;;;;;;5055921;28;20346;-63
2022/04/16 09:16:46;;;;;;;1.90;1.70;;;14.70;70.70;;;;;;5051616;28;20224;-64
2022/04/16 09:19:36;;;;;;;2.00;1.80;;;14.40;67.50;;;;;;5063347;28;20220;-63
2022/04/16 09:22:33;;;;;;;2.38;1.95;;;11.30;73.40;;;;;;5067574;28;20345;-63
2022/04/16 09:25:22;;;;;;;2.10;1.70;;;13.70;80.10;;;;;;5067013;28;20239;-62
2022/04/16 09:28:11;;;;;;;1.67;1.58;;;14.50;67.60;;;;;;5065438;28;20722;-62
2022/04/16 09:31:02;;;;;;;3.03;1.70;;;13.60;67.00;;;;;;5068397;28;20231;-65
2022/04/16 09:33:50;;;;;;;2.10;1.80;;;10.90;74.70;;;;;;5081637;28;20242;-63
2022/04/16 09:36:43;;;;;;;1.98;1.50;;;13.40;75.60;;;;;;5085935;28;20228;-62
2022/04/16 09:39:32;;;;;;;1.63;1.52;;;10.70;72.10;;;;;;5054655;28;20216;-63
2022/04/16 09:42:27;;;;;;;1.83;1.58;;;13.50;69.60;;;;;;5066617;28;20215;-63
2022/04/16 09:45:17;;;;;;;2.13;1.77;;;14.90;63.90;;;;;;5063598;28;20238;-62
2022/04/16 09:48:09;;;;;;;3.25;1.88;;;11.80;68.40;;;;;;5078644;28;20223;-63
2022/04/16 09:50:59;;;;;;;3.20;1.67;;;9.80;75.30;;;;;;5062879;28;20222;-63
2022/04/16 09:53:52;;;;;;;4.07;1.70;;;10.10;78.00;;;;;;5071208;28;20226;-63
2022/04/16 09:56:42;;;;;;;1.80;1.70;;;10.50;78.40;;;;;;5071374;28;20231;-63
2022/04/16 09:59:35;;;;;;;3.13;1.55;;;10.20;78.60;;;;;;5077266;28;20238;-63
2022/04/16 10:02:24;;;;;;;3.15;1.63;;;13.00;73.60;;;;;;5080259;28;20216;-64
2022/04/16 10:05:13;;;;;;;2.05;1.80;;;11.10;75.20;;;;;;5073584;28;20729;-64
2022/04/16 10:08:03;;;;;;;2.58;1.60;;;10.00;77.70;;;;;;5073534;28;20243;-64
2022/04/16 10:10:57;;;;;;;2.75;1.60;;;9.00;80.70;;;;;;5073367;28;20313;-62
2022/04/16 10:13:56;;;;;;;2.33;1.60;;;9.60;79.40;;;;;;5059829;28;20240;-63
2022/04/16 10:16:56;;;;;;;1.90;1.63;;;10.10;75.80;;;;;;5056263;28;20991;-63
2022/04/16 10:19:47;;;;;;;1.50;1.40;;;9.10;78.00;;;;;;5056356;28;20233;-64
2022/04/16 10:22:36;;;;;;;2.13;1.60;;;9.30;79.20;;;;;;5072681;28;20814;-63
2022/04/16 10:25:34;;;;;;;3.05;1.60;;;8.90;78.80;;;;;;5072976;28;20219;-63
2022/04/16 10:28:24;;;;;;;2.05;1.70;;;9.70;79.30;;;;;;5059415;28;20296;-62
2022/04/16 10:31:23;;;;;;;1.33;1.20;;;9.60;77.80;;;;;;5044038;28;20239;-63
2022/04/16 10:34:13;;;;;;;1.70;1.60;;;9.40;76.10;;;;;;5066446;28;20364;-62
2022/04/16 10:37:07;;;;;;;2.45;1.90;;;9.50;77.30;;;;;;5059337;28;20949;-61
2022/04/16 10:39:56;;;;;;;4.32;2.00;;;10.10;77.30;;;;;;5075324;28;20227;-62
2022/04/16 10:42:48;;;;;;;2.90;1.70;;;10.10;78.10;;;;;;5067540;28;20306;-62
2022/04/16 10:45:57;;;;;;;2.60;1.77;;;9.70;78.20;;;;;;5075882;28;20238;-63
2022/04/16 10:48:46;;;;;;;3.63;2.25;;;9.40;78.90;;;;;;5062623;28;20226;-63
2022/04/16 10:51:36;;;;;;;2.15;1.50;;;11.10;77.20;;;;;;5076712;28;20610;-62
2022/04/16 10:54:35;;;;;;;1.85;1.50;;;14.80;66.50;;;;;;5066724;28;20320;-63
2022/04/16 10:57:24;;;;;;;1.73;1.42;;;16.60;62.10;;;;;;5070415;28;20249;-63
2022/04/16 11:00:14;;;;;;;1.90;1.65;;;17.10;58.30;;;;;;5068947;28;20438;-64
2022/04/16 11:03:30;;;;;;;2.30;1.70;;;16.10;59.30;;;;;;5074085;28;20223;-67
2022/04/16 11:06:19;;;;;;;1.40;1.30;;;12.10;67.40;;;;;;5064497;28;20219;-68
2022/04/16 11:09:08;;;;;;;2.78;1.50;;;11.20;68.70;;;;;;5059116;28;20228;-66
2022/04/16 11:11:57;;;;;;;1.48;1.38;;;9.90;71.30;;;;;;5061587;28;20238;-65
2022/04/16 11:14:49;;;;;;;3.15;1.70;;;10.10;72.80;;;;;;5065746;28;20223;-77
2022/04/16 11:17:37;;;;;;;4.13;1.83;;;10.90;70.50;;;;;;5076919;28;20216;-65
2022/04/16 11:20:28;;;;;;;5.63;1.50;;;11.70;66.50;;;;;;5058137;28;20302;-60
2022/04/16 11:23:16;;;;;;;2.53;1.60;;;11.70;66.60;;;;;;5078386;27;20231;-62
2022/04/16 11:35:30;;;;;;;3.72;1.40;;;12.30;63.40;;;;;;5077068;28;20239;-63
2022/04/16 11:38:27;;;;;;;2.95;1.70;;;12.10;67.10;;;;;;5067409;28;20223;-64
2022/04/16 11:41:16;;;;;;;5.28;1.30;;;11.30;68.60;;;;;;5062383;28;20227;-63
2022/04/16 11:44:10;;;;;;;1.50;1.40;;;10.90;68.10;;;;;;5071957;28;20943;-65
2022/04/16 11:47:00;;;;;;;1.35;1.25;;;11.30;66.00;;;;;;5068518;28;20303;-65
2022/04/16 11:49:51;;;;;;;2.13;1.40;;;12.20;62.80;;;;;;5056763;28;20280;-64
2022/04/16 11:52:51;;;;;;;2.53;1.17;;;10.60;65.70;;;;;;5072231;28;20752;-65
2022/04/16 11:55:45;;;;;;;2.53;1.30;;;10.70;66.90;;;;;;5064683;28;20223;-64
2022/04/16 11:58:34;;;;;;;3.10;1.40;;;10.80;67.90;;;;;;5080724;28;20239;-65
2022/04/16 12:01:24;;;;;;;1.88;1.50;;;10.50;67.50;;;;;;5059604;28;20223;-63
2022/04/16 12:04:13;;;;;;;1.85;1.45;;;9.90;67.70;;;;;;5072373;28;20219;-65
2022/04/16 12:07:01;;;;;;;3.55;1.77;;;9.70;68.50;;;;;;5075850;28;20269;-65
2022/04/16 12:09:54;;;;;;;3.15;1.38;;;9.90;68.80;;;;;;5080291;28;20231;-63
2022/04/16 12:12:47;;;;;;;4.63;1.50;;;10.20;68.30;;;;;;5075190;28;20236;-65
2022/04/16 12:15:41;;;;;;;5.80;1.48;;;11.00;68.90;;;;;;5075964;28;20219;-64
2022/04/16 12:18:35;;;;;;;3.97;1.40;;;10.60;67.60;;;;;;5077755;28;20215;-64
2022/04/16 12:21:24;;;;;;;2.63;1.33;;;10.70;67.30;;;;;;5065965;28;20220;-65
2022/04/16 12:24:13;;;;;;;2.08;1.40;;;10.80;66.90;;;;;;5065376;28;20231;-64
2022/04/16 12:27:03;;;;;;;1.52;1.42;;;10.20;66.90;;;;;;5075911;28;20664;-62
2022/04/16 12:29:55;;;;;;;3.42;1.40;;;10.20;67.30;;;;;;5074593;28;20226;-66
2022/04/16 12:32:55;;;;;;;2.15;1.50;;;10.40;67.50;;;;;;5058447;28;20231;-65
2022/04/16 12:35:45;;;;;;;2.08;1.40;;;10.60;67.30;;;;;;5062957;28;20219;-66
2022/04/16 12:38:34;;;;;;;1.95;1.48;;;10.20;67.20;;;;;;5073833;28;20231;-65
2022/04/16 12:41:24;;;;;;;3.30;1.38;;;10.10;67.30;;;;;;5076265;28;20306;-64
2022/04/16 12:44:14;;;;;;;1.55;1.45;;;10.30;67.50;;;;;;5038347;28;20223;-64
2022/04/16 12:47:04;;;;;;;3.85;1.50;;;10.70;67.10;;;;;;5052547;28;20232;-66
2022/04/16 12:49:55;;;;;;;1.50;1.40;;;10.90;66.20;;;;;;5079687;28;20246;-65
2022/04/16 12:52:45;;;;;;;3.28;1.50;;;10.30;66.70;;;;;;5077637;28;20594;-66
2022/04/16 12:55:35;;;;;;;2.63;1.60;;;10.00;69.10;;;;;;5059775;28;20274;-65
2022/04/16 12:58:23;;;;;;;8.07;1.80;;;10.10;68.00;;;;;;5074902;28;20219;-65
2022/04/16 13:01:17;;;;;;;3.40;1.58;;;10.20;68.30;;;;;;5075417;28;20249;-66
2022/04/16 13:04:06;;;;;;;5.50;1.60;;;9.90;67.10;;;;;;5050753;28;20220;-64
2022/04/16 13:06:55;;;;;;;4.03;1.55;;;9.80;67.70;;;;;;5064955;28;20215;-64
2022/04/16 13:09:43;;;;;;;3.85;1.70;;;10.00;67.50;;;;;;5066936;28;20235;-65
2022/04/16 13:12:32;;;;;;;3.05;1.52;;;9.90;68.30;;;;;;5064533;28;20230;-66
2022/04/16 13:15:21;;;;;;;2.30;1.40;;;10.00;68.90;;;;;;5077201;28;20222;-66
2022/04/16 13:18:11;;;;;;;2.13;1.45;;;10.10;66.30;;;;;;5055904;28;20223;-65
2022/04/16 13:21:05;;;;;;;3.08;1.60;;;10.20;66.60;;;;;;5053982;28;20569;-64
2022/04/16 13:23:56;;;;;;;3.35;1.58;;;10.50;66.80;;;;;;5067340;28;20216;-66
2022/04/16 13:26:45;;;;;;;1.65;1.48;;;10.20;67.00;;;;;;5074432;28;20228;-67
2022/04/16 13:29:35;;;;;;;1.42;1.30;;;9.80;66.00;;;;;;5073697;28;20212;-70
2022/04/16 13:32:27;;;;;;;1.48;1.38;;;9.80;66.10;;;;;;5062560;28;20350;-66
2022/04/16 13:35:17;;;;;;;1.95;1.50;;;9.80;65.20;;;;;;5059527;28;20319;-65
2022/04/16 13:38:10;;;;;;;1.55;1.40;;;10.00;65.30;;;;;;5074357;28;20341;-65
2022/04/16 13:44:06;;;;;;;1.45;1.27;;;10.10;65.90;;;;;;5074111;28;20229;-64
2022/04/16 13:46:55;;;;;;;2.70;1.50;;;10.40;63.90;;;;;;5063624;28;20222;-63
2022/04/16 13:49:43;;;;;;;2.05;1.67;;;10.20;63.80;;;;;;5072494;28;20228;-64
2022/04/16 13:52:34;;;;;;;2.03;1.70;;;10.10;64.90;;;;;;5050029;28;20355;-66
2022/04/16 13:55:22;;;;;;;4.07;1.80;;;10.20;65.20;;;;;;5075281;28;20223;-65
2022/04/16 13:58:14;;;;;;;1.75;1.65;;;10.40;65.10;;;;;;5072992;28;20250;-64
2022/04/16 14:01:03;;;;;;;1.90;1.60;;;10.70;64.90;;;;;;5069876;28;20219;-66
2022/04/16 14:03:56;;;;;;;2.50;1.30;;;10.80;64.30;;;;;;5075996;28;20241;-64
2022/04/16 14:06:45;;;;;;;1.92;1.48;;;10.60;64.20;;;;;;5062101;28;20223;-66
2022/04/16 14:09:37;;;;;;;2.15;1.40;;;10.60;63.50;;;;;;5064028;28;20302;-66
2022/04/16 14:12:28;;;;;;;1.98;1.48;;;10.00;64.20;;;;;;5063397;28;20231;-64
2022/04/16 14:15:17;;;;;;;3.35;1.45;;;10.00;65.60;;;;;;5080579;28;20279;-67
2022/04/16 14:18:06;;;;;;;2.33;1.50;;;10.10;65.70;;;;;;5061839;28;20253;-66
2022/04/16 14:20:55;;;;;;;2.35;1.30;;;10.20;63.70;;;;;;5059014;28;20224;-66
2022/04/16 14:23:44;;;;;;;1.63;1.40;;;10.00;64.00;;;;;;5078134;28;20744;-65
2022/04/16 14:26:36;;;;;;;1.60;1.50;;;9.90;64.40;;;;;;5075732;28;20580;-66
2022/04/16 14:29:25;;;;;;;2.65;1.50;;;10.20;64.70;;;;;;5061649;28;20233;-64
2022/04/16 14:32:14;;;;;;;1.35;1.25;;;10.50;64.70;;;;;;5063431;28;20224;-65
2022/04/16 14:35:02;;;;;;;1.42;1.33;;;10.40;63.40;;;;;;5065231;28;20232;-66
2022/04/16 14:37:51;;;;;;;1.88;1.58;;;10.30;64.00;;;;;;5076803;28;20216;-65
2022/04/16 14:40:41;;;;;;;1.20;1.10;;;10.40;64.50;;;;;;5073272;28;20230;-67
2022/04/16 14:43:31;;;;;;;1.27;1.17;;;10.60;63.70;;;;;;5071954;28;20295;-66
2022/04/16 14:46:20;;;;;;;1.80;1.42;;;10.50;63.10;;;;;;5071579;28;20220;-66
2022/04/16 14:49:10;;;;;;;1.95;1.60;;;10.10;63.80;;;;;;5064183;28;20229;-66
2022/04/16 14:51:59;;;;;;;2.50;1.70;;;9.90;63.60;;;;;;5073336;28;20238;-65
2022/04/16 14:54:49;;;;;;;2.67;1.60;;;10.00;64.90;;;;;;5069517;28;20226;-67
2022/04/16 14:57:58;;;;;;;2.15;1.45;;;10.20;64.70;;;;;;5064445;28;20220;-64
2022/04/16 15:00:48;;;;;;;1.67;1.38;;;10.20;64.80;;;;;;5057509;28;20230;-65
2022/04/16 15:03:37;;;;;;;2.38;1.70;;;10.20;64.90;;;;;;5077060;28;21070;-64
2022/04/16 15:06:26;;;;;;;3.60;1.42;;;10.40;65.40;;;;;;5051935;28;20232;-65
2022/04/16 15:09:14;;;;;;;3.80;1.77;;;10.30;65.50;;;;;;5027568;28;20231;-62
2022/04/16 15:12:05;;;;;;;3.08;1.50;;;10.50;65.70;;;;;;5042218;28;20599;-65
2022/04/16 15:14:54;;;;;;;2.30;1.48;;;10.40;65.00;;;;;;5062683;28;20235;-64
2022/04/16 15:17:45;;;;;;;2.03;1.60;;;10.30;66.00;;;;;;5071812;28;20216;-64